Cormorant, Minnesota
Current Conditions -  °F | °C
As of 10:35 AM on Saturday 22 Nov 2014 (Local Time) from KDTL Reporting Station
Clear Clear  
Wind Chill: 29°   Ceiling: Unl
Heat Index: 36°   Visibility: 10mi
Dew Point: 30°   Wind: 8mph
Humidity: 81%   Direction: 190°S
Pressure: 29.61"   Gusts: NA
Location:  46.6222°N, 96.0745°W
Report Text: KDTL 221635Z AUTO 19007KT 10SM CLR 02/M01 A2961 RMK AO2
Loading
Personal Weather Stations






























Interactive Weather Map New forecast layout! Learn more

10-Day Weather Forecast

Advertisements
Track Severe Weather on mobile